createdAt,value
2019-05-17T00:01:28.969Z,2.80
2019-05-17T00:04:07.252Z,4.50
2019-05-17T00:06:43.582Z,1.10
2019-05-17T00:09:20.557Z,3.23
2019-05-17T00:11:57.424Z,3.07
2019-05-17T00:14:36.477Z,0.73
2019-05-17T00:17:12.197Z,1.60
2019-05-17T00:19:48.113Z,2.10
2019-05-17T00:22:24.097Z,2.60
2019-05-17T00:25:02.037Z,2.77
2019-05-17T00:27:38.791Z,2.65
2019-05-17T00:30:17.307Z,4.07
2019-05-17T00:32:53.466Z,1.67
2019-05-17T00:35:30.165Z,3.10
2019-05-17T00:38:06.568Z,2.73
2019-05-17T00:40:43.626Z,3.77
2019-05-17T00:43:20.014Z,2.15
2019-05-17T00:45:57.449Z,5.03
2019-05-17T00:48:34.337Z,2.12
2019-05-17T00:51:11.123Z,2.72
2019-05-17T00:53:47.568Z,1.70
2019-05-17T00:56:26.478Z,4.10
2019-05-17T00:59:01.989Z,4.87
2019-05-17T01:01:38.401Z,2.57
2019-05-17T01:04:17.103Z,1.90
2019-05-17T01:06:52.874Z,2.10
2019-05-17T01:09:29.241Z,1.60
2019-05-17T01:12:07.073Z,1.50
2019-05-17T01:14:44.025Z,2.93
2019-05-17T01:17:20.117Z,2.83
2019-05-17T01:19:57.394Z,1.80
2019-05-17T01:22:33.530Z,0.80
2019-05-17T01:25:10.352Z,2.47
2019-05-17T01:27:47.391Z,2.00
2019-05-17T01:30:26.512Z,2.57
2019-05-17T01:33:01.875Z,1.50
2019-05-17T01:35:38.031Z,1.33
2019-05-17T01:38:14.394Z,1.40
2019-05-17T01:40:50.353Z,1.77
2019-05-17T01:43:27.355Z,0.80
2019-05-17T01:46:03.520Z,1.40
2019-05-17T01:48:39.891Z,3.13
2019-05-17T01:51:16.931Z,1.10
2019-05-17T01:53:53.786Z,1.27
2019-05-17T01:56:30.418Z,2.23
2019-05-17T01:59:06.990Z,2.63
2019-05-17T02:01:47.372Z,1.53
2019-05-17T02:04:26.673Z,3.47
2019-05-17T02:07:02.510Z,2.20
2019-05-17T02:09:41.765Z,2.83
2019-05-17T02:12:17.379Z,2.00
2019-05-17T02:14:53.738Z,1.87
2019-05-17T02:17:30.037Z,2.43
2019-05-17T02:20:07.108Z,1.93
2019-05-17T02:22:43.592Z,1.82
2019-05-17T02:25:21.769Z,1.03
2019-05-17T02:27:57.637Z,1.70
2019-05-17T02:30:34.013Z,1.37
2019-05-17T02:33:12.605Z,1.15
2019-05-17T02:35:48.834Z,1.60
2019-05-17T02:38:25.141Z,1.27
2019-05-17T02:41:03.297Z,1.23
2019-05-17T02:43:39.726Z,1.60
2019-05-17T02:46:16.013Z,0.90
2019-05-17T02:48:53.860Z,2.17
2019-05-17T02:51:32.402Z,1.10
2019-05-17T02:54:08.050Z,1.13
2019-05-17T02:56:44.253Z,0.87
2019-05-17T02:59:23.050Z,0.63
2019-05-17T03:02:03.175Z,1.53
2019-05-17T03:04:37.923Z,2.13
2019-05-17T03:07:13.988Z,1.53
2019-05-17T03:09:53.217Z,1.80
2019-05-17T03:12:28.574Z,0.80
2019-05-17T03:15:06.047Z,1.17
2019-05-17T03:17:43.295Z,0.70
2019-05-17T03:20:23.187Z,1.13
2019-05-17T03:22:58.506Z,1.63
2019-05-17T03:25:34.507Z,1.30
2019-05-17T03:28:13.413Z,1.20
2019-05-17T03:30:55.476Z,1.70
2019-05-17T03:33:27.577Z,1.47
2019-05-17T03:36:06.284Z,0.70
2019-05-17T03:38:43.180Z,0.90
2019-05-17T03:41:27.848Z,1.27
2019-05-17T03:43:58.474Z,1.67
2019-05-17T03:46:35.334Z,1.52
2019-05-17T03:49:13.074Z,2.77
2019-05-17T03:51:49.306Z,1.00
2019-05-17T03:54:26.406Z,1.20
2019-05-17T03:57:03.196Z,1.50
2019-05-17T03:59:42.925Z,0.97
2019-05-17T04:02:17.919Z,1.20
2019-05-17T04:04:55.063Z,1.53
2019-05-17T04:07:32.902Z,1.10
2019-05-17T04:10:09.935Z,1.10
2019-05-17T04:12:46.481Z,0.70
2019-05-17T04:15:24.286Z,1.20
2019-05-17T04:18:04.352Z,0.63
2019-05-17T04:20:39.160Z,1.10
2019-05-17T04:23:15.410Z,0.87
2019-05-17T04:25:53.187Z,1.03
2019-05-17T04:28:33.239Z,1.37
2019-05-17T04:31:08.525Z,1.80
2019-05-17T04:33:45.138Z,0.87
2019-05-17T04:36:22.791Z,1.63
2019-05-17T04:38:59.142Z,1.73
2019-05-17T04:41:44.933Z,0.93
2019-05-17T04:44:13.641Z,0.63
2019-05-17T04:46:53.384Z,1.12
2019-05-17T04:49:28.910Z,1.40
2019-05-17T04:52:05.648Z,0.87
2019-05-17T04:54:42.408Z,1.13
2019-05-17T04:57:19.136Z,1.37
2019-05-17T04:59:55.104Z,0.80
2019-05-17T05:02:32.962Z,1.00
2019-05-17T05:05:13.229Z,0.90
2019-05-17T05:07:48.557Z,0.97
2019-05-17T05:10:25.260Z,3.70
2019-05-17T05:13:03.090Z,11.30
2019-05-17T05:15:44.143Z,7.62
2019-05-17T05:18:22.105Z,7.20
2019-05-17T05:20:57.973Z,6.83
2019-05-17T05:23:33.961Z,6.53
2019-05-17T05:26:12.020Z,2.40
2019-05-17T05:28:49.766Z,2.63
2019-05-17T05:31:26.841Z,2.87
2019-05-17T05:34:03.845Z,2.33
2019-05-17T05:36:41.812Z,2.37
2019-05-17T05:39:18.932Z,3.60
2019-05-17T05:42:06.271Z,3.90
2019-05-17T05:44:33.580Z,1.40
2019-05-17T05:47:11.474Z,5.37
2019-05-17T05:49:47.469Z,2.00
2019-05-17T05:52:23.819Z,3.07
2019-05-17T05:55:01.524Z,2.40
2019-05-17T05:57:37.780Z,3.58
2019-05-17T06:00:15.801Z,2.60
2019-05-17T06:02:52.669Z,1.12
2019-05-17T06:05:28.825Z,2.57
2019-05-17T06:08:04.674Z,1.50
2019-05-17T06:10:42.701Z,2.22
2019-05-17T06:13:18.949Z,3.20
2019-05-17T06:15:54.680Z,6.60
2019-05-17T06:18:31.849Z,2.98
2019-05-17T06:21:08.470Z,4.35
2019-05-17T06:23:45.332Z,7.27
2019-05-17T06:26:23.773Z,6.70
2019-05-17T06:29:02.754Z,7.33
2019-05-17T06:31:39.452Z,7.90
2019-05-17T06:34:15.936Z,6.75
2019-05-17T06:36:52.919Z,6.08
2019-05-17T06:39:29.633Z,7.40
2019-05-17T06:42:07.632Z,4.08
2019-05-17T06:44:44.359Z,5.87
2019-05-17T06:47:22.568Z,3.77
2019-05-17T06:49:58.620Z,5.00
2019-05-17T06:52:35.468Z,3.30
2019-05-17T06:55:12.831Z,4.35
2019-05-17T06:57:49.244Z,2.57
2019-05-17T07:00:25.481Z,5.45
2019-05-17T07:03:01.886Z,4.47
2019-05-17T07:05:40.350Z,5.95
2019-05-17T07:08:17.228Z,3.92
2019-05-17T07:10:53.228Z,5.60
2019-05-17T07:13:30.054Z,6.95
2019-05-17T07:16:06.884Z,4.45
2019-05-17T07:18:42.616Z,5.70
2019-05-17T07:21:20.531Z,5.67
2019-05-17T07:23:59.254Z,9.18
2019-05-17T07:26:35.226Z,10.82
2019-05-17T07:29:11.997Z,5.12
2019-05-17T07:31:49.795Z,6.12
2019-05-17T07:34:26.160Z,4.65
2019-05-17T07:37:02.603Z,6.72
2019-05-17T07:39:40.076Z,5.87
2019-05-17T07:42:16.832Z,14.28
2019-05-17T07:44:53.054Z,13.78
2019-05-17T07:47:29.520Z,20.75
2019-05-17T07:50:06.686Z,11.78
2019-05-17T07:52:43.847Z,12.88
2019-05-17T07:55:22.866Z,14.78
2019-05-17T07:58:00.078Z,16.57
2019-05-17T08:00:35.338Z,7.28
2019-05-17T08:03:13.440Z,13.98
2019-05-17T08:05:50.586Z,13.25
2019-05-17T08:08:30.506Z,9.10
2019-05-17T08:11:05.948Z,13.83
2019-05-17T08:13:42.876Z,11.80
2019-05-17T08:16:19.643Z,8.50
2019-05-17T08:18:55.967Z,14.27
2019-05-17T08:21:33.033Z,14.95
2019-05-17T08:24:10.427Z,8.03
2019-05-17T08:26:47.674Z,9.45
2019-05-17T08:29:23.648Z,16.30
2019-05-17T08:32:00.431Z,9.60
2019-05-17T08:34:36.714Z,7.43
2019-05-17T08:37:12.645Z,6.03
2019-05-17T08:39:50.544Z,8.00
2019-05-17T08:42:27.015Z,8.67
2019-05-17T08:45:03.200Z,11.67
2019-05-17T08:47:39.881Z,8.70
2019-05-17T08:50:16.576Z,9.60
2019-05-17T08:52:52.760Z,9.20
2019-05-17T08:55:29.875Z,7.87
2019-05-17T08:58:06.338Z,4.67
2019-05-17T09:00:42.723Z,7.27
2019-05-17T09:03:20.215Z,6.77
2019-05-17T09:05:56.924Z,7.53
2019-05-17T09:08:34.025Z,6.43
2019-05-17T09:11:10.220Z,6.97
2019-05-17T09:13:57.220Z,8.33
2019-05-17T09:16:24.957Z,5.70
2019-05-17T09:19:03.833Z,5.00
2019-05-17T09:21:40.092Z,9.20
2019-05-17T09:24:16.035Z,14.40
2019-05-17T09:26:52.949Z,12.83
2019-05-17T09:29:29.713Z,7.00
2019-05-17T09:32:05.728Z,9.57
2019-05-17T09:34:42.704Z,8.80
2019-05-17T09:37:22.616Z,8.23
2019-05-17T09:39:59.875Z,7.20
2019-05-17T09:42:36.554Z,7.20
2019-05-17T09:45:13.667Z,6.53
2019-05-17T09:47:50.676Z,12.13
2019-05-17T09:50:29.405Z,8.35
2019-05-17T09:53:07.819Z,5.85
2019-05-17T09:55:44.398Z,8.70
2019-05-17T09:58:21.799Z,5.90
2019-05-17T10:01:01.067Z,8.80
2019-05-17T10:03:39.803Z,7.53
2019-05-17T10:06:16.434Z,7.43
2019-05-17T10:08:53.811Z,6.07
2019-05-17T10:11:30.869Z,5.00
2019-05-17T10:14:07.253Z,5.27
2019-05-17T10:16:43.413Z,5.72
2019-05-17T10:19:23.568Z,7.20
2019-05-17T10:21:59.735Z,12.23
2019-05-17T10:24:39.670Z,9.85
2019-05-17T10:27:14.662Z,10.63
2019-05-17T10:29:51.260Z,12.67
2019-05-17T10:32:30.806Z,9.13
2019-05-17T10:35:05.850Z,12.60
2019-05-17T10:37:42.358Z,14.35
2019-05-17T10:40:20.999Z,9.53
2019-05-17T10:43:00.575Z,10.17
2019-05-17T10:45:35.867Z,9.45
2019-05-17T10:48:12.720Z,11.70
2019-05-17T10:50:49.667Z,13.17
2019-05-17T10:53:26.590Z,10.55
2019-05-17T10:56:03.000Z,13.23
2019-05-17T10:58:40.027Z,11.50
2019-05-17T11:01:16.508Z,12.78
2019-05-17T11:03:53.528Z,13.20
2019-05-17T11:06:30.251Z,14.35
2019-05-17T11:09:07.186Z,15.00
2019-05-17T11:11:43.107Z,18.40
2019-05-17T11:14:19.964Z,15.48
2019-05-17T11:16:55.704Z,20.97
2019-05-17T11:19:32.325Z,21.35
2019-05-17T11:22:08.833Z,18.62
2019-05-17T11:24:44.525Z,23.60
2019-05-17T11:27:21.286Z,18.10
2019-05-17T11:29:57.191Z,21.00
2019-05-17T11:32:33.261Z,17.95
2019-05-17T11:35:10.638Z,21.90
2019-05-17T11:37:47.176Z,27.00
2019-05-17T11:40:23.470Z,19.65
2019-05-17T11:42:59.806Z,13.55
2019-05-17T11:45:36.055Z,13.68
2019-05-17T11:48:12.432Z,11.18
2019-05-17T11:50:48.910Z,13.62
2019-05-17T11:53:25.577Z,17.12
2019-05-17T11:56:01.623Z,15.63
2019-05-17T11:58:38.009Z,15.78
2019-05-17T12:01:14.652Z,11.63
2019-05-17T12:03:50.744Z,14.78
2019-05-17T12:06:27.041Z,14.18
2019-05-17T12:09:04.913Z,17.30
2019-05-17T12:11:41.550Z,13.93
2019-05-17T12:14:18.450Z,12.82
2019-05-17T12:16:54.732Z,12.00
2019-05-17T12:19:30.625Z,15.23
2019-05-17T12:22:06.748Z,11.18
2019-05-17T12:24:43.095Z,9.40
2019-05-17T12:27:20.166Z,10.13
2019-05-17T12:29:56.753Z,9.90
2019-05-17T12:32:33.109Z,10.13
2019-05-17T12:35:10.058Z,9.33
2019-05-17T12:37:46.808Z,13.10
2019-05-17T12:40:26.066Z,15.23
2019-05-17T12:43:02.790Z,13.70
2019-05-17T12:45:39.137Z,8.30
2019-05-17T12:48:15.487Z,10.18
2019-05-17T12:50:51.447Z,11.95
2019-05-17T12:53:28.201Z,6.67
2019-05-17T12:56:04.384Z,8.80
2019-05-17T12:58:41.849Z,7.50
2019-05-17T13:01:18.181Z,9.88
2019-05-17T13:03:55.033Z,8.55
2019-05-17T13:06:32.069Z,10.20
2019-05-17T13:09:08.668Z,12.35
2019-05-17T13:11:45.226Z,7.08
2019-05-17T13:14:21.385Z,7.67
2019-05-17T13:16:57.488Z,5.42
2019-05-17T13:19:34.174Z,10.00
2019-05-17T13:22:10.175Z,5.10
2019-05-17T13:24:47.013Z,7.67
2019-05-17T13:27:22.886Z,6.97
2019-05-17T13:29:58.646Z,6.37
2019-05-17T13:32:34.861Z,6.30
2019-05-17T13:35:11.545Z,9.40
2019-05-17T13:37:48.201Z,8.15
2019-05-17T13:40:24.534Z,8.13
2019-05-17T13:43:00.932Z,8.25
2019-05-17T13:45:38.028Z,11.18
2019-05-17T13:48:14.178Z,6.05
2019-05-17T13:50:52.159Z,7.22
2019-05-17T13:53:28.285Z,6.33
2019-05-17T13:56:04.720Z,6.35
2019-05-17T13:58:40.763Z,7.42
2019-05-17T14:01:17.006Z,6.97
2019-05-17T14:03:54.386Z,4.15
2019-05-17T14:06:31.780Z,6.70
2019-05-17T14:09:08.606Z,6.53
2019-05-17T14:11:45.365Z,4.78
2019-05-17T14:14:22.037Z,6.50
2019-05-17T14:16:57.958Z,6.33
2019-05-17T14:19:37.769Z,6.40
2019-05-17T14:22:15.066Z,4.78
2019-05-17T14:24:51.506Z,6.40
2019-05-17T14:27:27.776Z,4.60
2019-05-17T14:30:04.158Z,4.72
2019-05-17T14:32:40.284Z,5.55
2019-05-17T14:35:16.574Z,8.80
2019-05-17T14:37:53.484Z,4.15
2019-05-17T14:41:03.983Z,4.73
2019-05-17T14:43:08.853Z,4.80
2019-05-17T14:45:44.786Z,5.55
2019-05-17T14:48:20.816Z,4.03
2019-05-17T14:50:56.865Z,6.00
2019-05-17T14:53:33.782Z,3.83
2019-05-17T14:56:10.237Z,3.58
2019-05-17T14:58:46.103Z,5.60
2019-05-17T15:01:21.857Z,7.12
2019-05-17T15:03:58.112Z,4.45
2019-05-17T15:06:34.880Z,4.30
2019-05-17T15:09:12.555Z,4.03
2019-05-17T15:11:49.052Z,5.15
2019-05-17T15:14:29.104Z,3.87
2019-05-17T15:17:03.705Z,4.55
2019-05-17T15:19:40.179Z,6.00
2019-05-17T15:22:16.720Z,4.35
2019-05-17T15:24:53.917Z,3.72
2019-05-17T15:27:30.460Z,8.43
2019-05-17T15:30:07.717Z,7.03
2019-05-17T15:32:44.074Z,15.53
2019-05-17T15:35:20.782Z,17.55
2019-05-17T15:37:57.725Z,28.47
2019-05-17T15:40:34.671Z,28.53
2019-05-17T15:43:11.256Z,24.05
2019-05-17T15:45:48.008Z,19.47
2019-05-17T15:48:24.631Z,16.02
2019-05-17T15:51:01.551Z,17.07
2019-05-17T15:53:37.715Z,16.03
2019-05-17T15:56:14.429Z,23.32
2019-05-17T15:58:50.218Z,23.33
2019-05-17T16:01:26.764Z,15.43
2019-05-17T16:04:02.926Z,26.07
2019-05-17T16:06:39.604Z,26.05
2019-05-17T16:09:15.861Z,19.60
2019-05-17T16:11:52.147Z,16.65
2019-05-17T16:14:28.278Z,17.65
2019-05-17T16:17:04.294Z,18.10
2019-05-17T16:19:40.501Z,15.10
2019-05-17T16:22:16.417Z,17.55
2019-05-17T16:24:52.929Z,19.80
2019-05-17T16:27:30.544Z,14.47
2019-05-17T16:30:07.452Z,15.38
2019-05-17T16:32:44.792Z,19.80
2019-05-17T16:35:22.542Z,12.75
2019-05-17T16:37:59.978Z,15.28
2019-05-17T16:40:36.657Z,9.20
2019-05-17T16:43:18.230Z,9.93
2019-05-17T16:45:51.953Z,12.70
2019-05-17T16:48:27.665Z,18.90
2019-05-17T16:51:04.291Z,10.43
2019-05-17T16:53:40.741Z,11.15
2019-05-17T16:56:18.413Z,11.73
2019-05-17T16:58:55.162Z,14.07
2019-05-17T17:01:31.282Z,14.93
2019-05-17T17:04:09.617Z,9.87
2019-05-17T17:06:46.781Z,10.97
2019-05-17T17:09:23.333Z,14.23
2019-05-17T17:12:00.298Z,6.40
2019-05-17T17:14:37.272Z,5.97
2019-05-17T17:17:13.874Z,3.55
2019-05-17T17:19:49.821Z,4.73
2019-05-17T17:22:26.337Z,5.80
2019-05-17T17:25:02.684Z,5.23
2019-05-17T17:27:38.937Z,5.95
2019-05-17T17:30:16.318Z,8.17
2019-05-17T17:32:52.278Z,6.73
2019-05-17T17:35:28.694Z,3.97
2019-05-17T17:38:04.494Z,4.27
2019-05-17T17:40:40.818Z,4.58
2019-05-17T17:43:17.178Z,6.93
2019-05-17T17:45:53.378Z,6.90
2019-05-17T17:48:29.560Z,5.43
2019-05-17T17:51:06.764Z,6.05
2019-05-17T17:53:43.483Z,4.63
2019-05-17T17:56:19.712Z,5.20
2019-05-17T17:58:56.209Z,5.47
2019-05-17T18:01:33.004Z,6.53
2019-05-17T18:04:10.529Z,8.10
2019-05-17T18:06:46.837Z,7.40
2019-05-17T18:09:23.632Z,5.85
2019-05-17T18:11:59.893Z,5.85
2019-05-17T18:14:35.909Z,5.43
2019-05-17T18:17:11.779Z,10.23
2019-05-17T18:19:47.727Z,6.93
2019-05-17T18:22:24.656Z,5.97
2019-05-17T18:25:02.987Z,4.08
2019-05-17T18:27:42.409Z,9.60
2019-05-17T18:30:18.724Z,12.65
2019-05-17T18:32:54.731Z,12.53
2019-05-17T18:35:31.285Z,13.73
2019-05-17T18:38:07.701Z,7.80
2019-05-17T18:40:44.918Z,5.90
2019-05-17T18:43:22.346Z,7.47
2019-05-17T18:45:58.612Z,5.87
2019-05-17T18:48:35.508Z,5.90
2019-05-17T18:51:12.659Z,7.17
2019-05-17T18:53:50.287Z,5.92
2019-05-17T18:56:26.936Z,5.00
2019-05-17T18:59:04.958Z,5.13
2019-05-17T19:01:40.960Z,5.78
2019-05-17T19:04:17.511Z,4.62
2019-05-17T19:06:54.103Z,4.17
2019-05-17T19:09:30.823Z,5.12
2019-05-17T19:12:07.325Z,4.80
2019-05-17T19:14:43.994Z,5.13
2019-05-17T19:17:21.308Z,5.35
2019-05-17T19:20:01.506Z,5.35
2019-05-17T19:22:38.576Z,3.15
2019-05-17T19:25:17.111Z,7.37
2019-05-17T19:27:53.667Z,4.67
2019-05-17T19:30:30.908Z,3.97
2019-05-17T19:33:10.754Z,4.07
2019-05-17T19:35:49.059Z,4.90
2019-05-17T19:38:26.273Z,7.83
2019-05-17T19:41:02.416Z,5.30
2019-05-17T19:43:39.359Z,3.73
2019-05-17T19:46:15.682Z,4.00
2019-05-17T19:48:52.613Z,5.87
2019-05-17T19:51:30.346Z,4.80
2019-05-17T19:54:07.136Z,3.83
2019-05-17T19:56:43.406Z,4.03
2019-05-17T19:59:19.844Z,3.53
2019-05-17T20:01:56.386Z,4.97
2019-05-17T20:04:33.123Z,3.60
2019-05-17T20:07:10.039Z,5.40
2019-05-17T20:09:46.783Z,5.87
2019-05-17T20:12:23.591Z,5.87
2019-05-17T20:15:16.840Z,10.05
2019-05-17T20:17:41.412Z,4.58
2019-05-17T20:20:17.373Z,4.57
2019-05-17T20:22:54.283Z,4.30
2019-05-17T20:25:30.136Z,9.88
2019-05-17T20:28:06.325Z,9.40
2019-05-17T20:30:42.752Z,6.05
2019-05-17T20:33:19.521Z,7.93
2019-05-17T20:35:55.998Z,4.65
2019-05-17T20:38:33.021Z,5.72
2019-05-17T20:41:09.356Z,5.70
2019-05-17T20:43:45.573Z,6.25
2019-05-17T20:46:22.006Z,3.97
2019-05-17T20:48:58.844Z,4.67
2019-05-17T20:51:35.101Z,4.97
2019-05-17T20:54:11.657Z,3.53
2019-05-17T20:56:48.485Z,6.83
2019-05-17T20:59:24.329Z,4.67
2019-05-17T21:02:01.044Z,3.67
2019-05-17T21:04:38.373Z,5.00
2019-05-17T21:07:14.826Z,3.80
2019-05-17T21:09:52.179Z,4.67
2019-05-17T21:12:28.904Z,7.60
2019-05-17T21:15:06.164Z,7.93
2019-05-17T21:17:42.664Z,5.03
2019-05-17T21:20:19.526Z,5.03
2019-05-17T21:22:56.522Z,4.50
2019-05-17T21:25:33.104Z,9.05
2019-05-17T21:28:09.226Z,6.33
2019-05-17T21:30:45.687Z,4.53
2019-05-17T21:33:22.998Z,6.50
2019-05-17T21:36:00.328Z,5.30
2019-05-17T21:38:36.973Z,6.23
2019-05-17T21:41:14.114Z,4.80
2019-05-17T21:43:50.377Z,3.30
2019-05-17T21:46:27.171Z,5.37
2019-05-17T21:49:03.337Z,4.63
2019-05-17T21:51:39.824Z,5.77
2019-05-17T21:54:16.218Z,6.20
2019-05-17T21:56:55.561Z,4.63
2019-05-17T21:59:33.139Z,5.00
2019-05-17T22:02:13.442Z,5.73
2019-05-17T22:04:53.807Z,4.47
2019-05-17T22:07:30.761Z,4.07
2019-05-17T22:10:08.135Z,6.30
2019-05-17T22:12:45.239Z,3.73
2019-05-17T22:15:22.180Z,4.60
2019-05-17T22:17:59.619Z,4.80
2019-05-17T22:20:37.595Z,5.42
2019-05-17T22:23:15.756Z,3.53
2019-05-17T22:25:52.334Z,5.50
2019-05-17T22:28:28.847Z,5.17
2019-05-17T22:31:05.355Z,3.40
2019-05-17T22:33:41.419Z,4.37
2019-05-17T22:36:17.787Z,9.67
2019-05-17T22:38:54.568Z,4.03
2019-05-17T22:41:30.869Z,3.83
2019-05-17T22:44:06.901Z,5.00
2019-05-17T22:46:42.807Z,5.97
2019-05-17T22:49:18.730Z,3.23
2019-05-17T22:51:54.529Z,6.27
2019-05-17T22:54:31.646Z,7.73
2019-05-17T22:57:08.209Z,5.33
2019-05-17T22:59:44.685Z,4.57
2019-05-17T23:02:20.629Z,4.90
2019-05-17T23:04:58.125Z,4.27
2019-05-17T23:07:33.897Z,3.07
2019-05-17T23:10:09.928Z,3.00
2019-05-17T23:12:45.713Z,3.80
2019-05-17T23:15:22.053Z,3.17
2019-05-17T23:17:57.976Z,4.17
2019-05-17T23:20:33.705Z,4.27
2019-05-17T23:23:10.368Z,4.33
2019-05-17T23:25:46.913Z,5.13
2019-05-17T23:28:22.634Z,3.73
2019-05-17T23:30:59.072Z,4.73
2019-05-17T23:33:35.359Z,4.67
2019-05-17T23:36:11.568Z,6.25
2019-05-17T23:38:48.014Z,4.03
2019-05-17T23:41:25.050Z,3.50
2019-05-17T23:44:01.363Z,4.28
2019-05-17T23:46:37.386Z,4.50
2019-05-17T23:49:13.768Z,4.17
2019-05-17T23:51:50.242Z,3.20
2019-05-17T23:54:27.424Z,4.10
2019-05-17T23:57:03.896Z,5.53
2019-05-17T23:59:40.308Z,4.40
